Time,TemperatureF,DewpointF,PressureIn,WindDirection,WindDirectionDegrees,WindSpeedMPH,WindSpeedGustMPH,Humidity,HourlyPrecipIn,Conditions,Clouds,dailyrainin,SoftwareType,DateUTC
2013-05-01 00:01:00,67.4,64.0,29.82,East,91,0.0,-999.0,87,-99.99,,,0.00,weatherlink.com 1.10,2013-05-01 05:01:00,
2013-05-01 00:16:00,67.0,63.0,29.82,East,91,0.0,-999.0,88,-99.99,,,0.00,weatherlink.com 1.10,2013-05-01 05:16:00,
2013-05-01 00:31:00,66.5,63.0,29.82,East,91,2.0,-999.0,89,-99.99,,,0.00,weatherlink.com 1.10,2013-05-01 05:31:00,
2013-05-01 00:46:00,66.2,63.0,29.83,East,91,0.0,-999.0,89,-99.99,,,0.00,weatherlink.com 1.10,2013-05-01 05:46:00,
2013-05-01 01:01:00,66.0,63.0,29.83,East,91,0.0,-999.0,89,-99.99,,,0.00,weatherlink.com 1.10,2013-05-01 06:01:00,
2013-05-01 01:16:00,65.6,63.0,29.83,East,91,1.0,-999.0,90,-99.99,,,0.00,weatherlink.com 1.10,2013-05-01 06:16:00,
2013-05-01 01:31:00,65.2,62.0,29.82,East,91,1.0,-999.0,90,-99.99,,,0.00,weatherlink.com 1.10,2013-05-01 06:31:00,
2013-05-01 01:46:00,65.0,62.0,29.82,East,80,2.0,-999.0,91,-99.99,,,0.00,weatherlink.com 1.10,2013-05-01 06:46:00,
2013-05-01 02:01:00,64.8,62.0,29.82,East,80,0.0,-999.0,91,-99.99,,,0.00,weatherlink.com 1.10,2013-05-01 07:01:00,
2013-05-01 02:16:00,64.6,62.0,29.83,East,80,0.0,-999.0,91,-99.99,,,0.00,weatherlink.com 1.10,2013-05-01 07:16:00,
2013-05-01 02:31:00,64.4,62.0,29.83,East,80,1.0,-999.0,91,-99.99,,,0.00,weatherlink.com 1.10,2013-05-01 07:31:00,
2013-05-01 02:46:00,64.2,62.0,29.83,East,80,3.0,-999.0,91,-99.99,,,0.00,weatherlink.com 1.10,2013-05-01 07:46:00,
2013-05-01 03:01:00,63.8,62.0,29.82,East,80,0.0,-999.0,92,-99.99,,,0.00,weatherlink.com 1.10,2013-05-01 08:01:00,
2013-05-01 03:16:00,63.6,61.0,29.82,East,80,0.0,-999.0,92,-99.99,,,0.00,weatherlink.com 1.10,2013-05-01 08:16:00,
2013-05-01 03:31:00,63.3,61.0,29.81,East,80,2.0,-999.0,92,-99.99,,,0.00,weatherlink.com 1.10,2013-05-01 08:31:00,
2013-05-01 03:46:00,62.9,61.0,29.81,ESE,107,4.0,-999.0,93,-99.99,,,0.00,weatherlink.com 1.10,2013-05-01 08:46:00,
2013-05-01 04:01:00,62.7,61.0,29.81,East,94,1.0,-999.0,93,-99.99,,,0.00,weatherlink.com 1.10,2013-05-01 09:01:00,
2013-05-01 04:16:00,62.8,61.0,29.80,East,79,4.0,-999.0,94,-99.99,,,0.00,weatherlink.com 1.10,2013-05-01 09:16:00,
2013-05-01 04:31:00,62.8,61.0,29.80,East,89,2.0,-999.0,94,-99.99,,,0.00,weatherlink.com 1.10,2013-05-01 09:31:00,
2013-05-01 04:46:00,62.8,61.0,29.81,ESE,112,0.0,-999.0,94,-99.99,,,0.00,weatherlink.com 1.10,2013-05-01 09:46:00,
2013-05-01 05:01:00,62.8,61.0,29.81,ESE,114,0.0,-999.0,95,-99.99,,,0.00,weatherlink.com 1.10,2013-05-01 10:01:00,
2013-05-01 05:16:00,62.7,61.0,29.81,ESE,114,1.0,-999.0,95,-99.99,,,0.00,weatherlink.com 1.10,2013-05-01 10:16:00,
2013-05-01 05:31:00,62.6,61.0,29.81,East,91,5.0,-999.0,95,-99.99,,,0.00,weatherlink.com 1.10,2013-05-01 10:31:00,
2013-05-01 05:46:00,62.4,61.0,29.81,East,92,5.0,-999.0,95,-99.99,,,0.00,weatherlink.com 1.10,2013-05-01 10:46:00,
2013-05-01 06:01:00,62.3,61.0,29.81,ENE,78,0.0,-999.0,95,-99.99,,,0.00,weatherlink.com 1.10,2013-05-01 11:01:00,
2013-05-01 06:16:00,62.2,61.0,29.82,ENE,78,0.0,-999.0,95,-99.99,,,0.00,weatherlink.com 1.10,2013-05-01 11:16:00,
2013-05-01 06:31:00,62.0,61.0,29.83,ENE,78,0.0,-999.0,95,-99.99,,,0.00,weatherlink.com 1.10,2013-05-01 11:31:00,
2013-05-01 06:47:00,61.9,61.0,29.83,ENE,78,0.0,-999.0,95,-99.99,,,0.00,weatherlink.com 1.10,2013-05-01 11:47:00,
2013-05-01 07:02:00,61.9,61.0,29.84,ENE,78,0.0,-999.0,96,-99.99,,,0.00,weatherlink.com 1.10,2013-05-01 12:02:00,
2013-05-01 07:17:00,62.2,61.0,29.84,ENE,69,1.0,-999.0,96,-99.99,,,0.00,weatherlink.com 1.10,2013-05-01 12:17:00,
2013-05-01 07:32:00,62.9,62.0,29.85,ESE,111,4.0,-999.0,96,-99.99,,,0.00,weatherlink.com 1.10,2013-05-01 12:32:00,
2013-05-01 07:47:00,63.5,62.0,29.86,ESE,123,1.0,-999.0,96,-99.99,,,0.00,weatherlink.com 1.10,2013-05-01 12:47:00,
2013-05-01 08:02:00,64.1,63.0,29.86,ESE,106,2.0,-999.0,97,-99.99,,,0.00,weatherlink.com 1.10,2013-05-01 13:02:00,
2013-05-01 08:17:00,64.6,64.0,29.87,ENE,76,1.0,-999.0,97,-99.99,,,0.00,weatherlink.com 1.10,2013-05-01 13:17:00,
2013-05-01 08:32:00,65.0,64.0,29.87,East,94,0.0,-999.0,96,-99.99,,,0.00,weatherlink.com 1.10,2013-05-01 13:32:00,
2013-05-01 08:47:00,65.6,65.0,29.88,East,91,2.0,-999.0,96,-99.99,,,0.00,weatherlink.com 1.10,2013-05-01 13:47:00,
2013-05-01 09:02:00,66.1,65.0,29.88,East,93,4.0,-999.0,96,-99.99,,,0.00,weatherlink.com 1.10,2013-05-01 14:02:00,
2013-05-01 09:17:00,66.6,65.0,29.88,East,90,2.0,-999.0,95,-99.99,,,0.00,weatherlink.com 1.10,2013-05-01 14:17:00,
2013-05-01 09:32:00,67.3,66.0,29.88,East,98,1.0,-999.0,94,-99.99,,,0.00,weatherlink.com 1.10,2013-05-01 14:32:00,
2013-05-01 09:47:00,68.0,66.0,29.88,East,101,5.0,-999.0,92,-99.99,,,0.00,weatherlink.com 1.10,2013-05-01 14:47:00,
2013-05-01 10:02:00,68.7,66.0,29.88,SSW,206,2.0,-999.0,91,-99.99,,,0.00,weatherlink.com 1.10,2013-05-01 15:02:00,
2013-05-01 10:17:00,69.1,66.0,29.89,ESE,117,8.0,-999.0,90,-99.99,,,0.00,weatherlink.com 1.10,2013-05-01 15:17:00,
2013-05-01 10:32:00,69.1,66.0,29.89,East,89,7.0,-999.0,89,-99.99,,,0.00,weatherlink.com 1.10,2013-05-01 15:32:00,
2013-05-01 10:47:00,69.8,67.0,29.90,East,90,6.0,-999.0,89,-99.99,,,0.00,weatherlink.com 1.10,2013-05-01 15:47:00,
2013-05-01 11:02:00,69.9,66.0,29.90,ENE,57,4.0,-999.0,88,-99.99,,,0.00,weatherlink.com 1.10,2013-05-01 16:02:00,
2013-05-01 11:17:00,70.4,67.0,29.90,NE,49,3.0,-999.0,88,-99.99,,,0.00,weatherlink.com 1.10,2013-05-01 16:17:00,
2013-05-01 11:32:00,71.8,68.0,29.91,SE,127,2.0,-999.0,86,-99.99,,,0.00,weatherlink.com 1.10,2013-05-01 16:32:00,
2013-05-01 11:47:00,72.2,67.0,29.91,ENE,68,5.0,-999.0,84,-99.99,,,0.00,weatherlink.com 1.10,2013-05-01 16:47:00,
2013-05-01 12:02:00,72.2,67.0,29.91,ESE,106,2.0,-999.0,84,-99.99,,,0.00,weatherlink.com 1.10,2013-05-01 17:02:00,
2013-05-01 12:17:00,72.1,67.0,29.91,East,79,0.0,-999.0,84,-99.99,,,0.00,weatherlink.com 1.10,2013-05-01 17:17:00,
2013-05-01 12:32:00,73.0,68.0,29.90,East,87,2.0,-999.0,83,-99.99,,,0.00,weatherlink.com 1.10,2013-05-01 17:32:00,
2013-05-01 12:47:00,73.8,68.0,29.90,East,81,3.0,-999.0,82,-99.99,,,0.00,weatherlink.com 1.10,2013-05-01 17:47:00,
2013-05-01 13:03:00,75.7,70.0,29.89,East,86,5.0,-999.0,81,-99.99,,,0.00,weatherlink.com 1.10,2013-05-01 18:03:00,
2013-05-01 13:18:00,76.6,69.0,29.89,ENE,60,6.0,-999.0,77,-99.99,,,0.00,weatherlink.com 1.10,2013-05-01 18:18:00,
2013-05-01 13:33:00,76.9,69.0,29.89,ENE,66,0.0,-999.0,76,-99.99,,,0.00,weatherlink.com 1.10,2013-05-01 18:33:00,
2013-05-01 13:48:00,78.1,70.0,29.89,ENE,74,4.0,-999.0,75,-99.99,,,0.00,weatherlink.com 1.10,2013-05-01 18:48:00,
2013-05-01 14:03:00,80.2,70.0,29.89,ENE,60,3.0,-999.0,72,-99.99,,,0.00,weatherlink.com 1.10,2013-05-01 19:03:00,
2013-05-01 14:18:00,80.5,70.0,29.89,SSE,149,7.0,-999.0,70,-99.99,,,0.00,weatherlink.com 1.10,2013-05-01 19:18:00,
2013-05-01 14:33:00,79.7,70.0,29.89,ENE,72,0.0,-999.0,73,-99.99,,,0.00,weatherlink.com 1.10,2013-05-01 19:33:00,
2013-05-01 14:48:00,80.5,69.0,29.89,ENE,72,0.0,-999.0,69,-99.99,,,0.00,weatherlink.com 1.10,2013-05-01 19:48:00,
2013-05-01 15:03:00,80.2,70.0,29.89,ENE,72,0.0,-999.0,70,-99.99,,,0.00,weatherlink.com 1.10,2013-05-01 20:03:00,
2013-05-01 15:18:00,79.8,71.0,29.88,ENE,72,0.0,-999.0,74,-99.99,,,0.00,weatherlink.com 1.10,2013-05-01 20:18:00,
2013-05-01 15:33:00,81.0,68.0,29.88,East,88,0.0,-999.0,65,-99.99,,,0.00,weatherlink.com 1.10,2013-05-01 20:33:00,
2013-05-01 15:48:00,81.6,70.0,29.87,East,88,0.0,-999.0,67,-99.99,,,0.00,weatherlink.com 1.10,2013-05-01 20:48:00,
2013-05-01 16:03:00,81.6,68.0,29.86,ENE,61,4.0,-999.0,63,-99.99,,,0.00,weatherlink.com 1.10,2013-05-01 21:03:00,
2013-05-01 16:18:00,80.9,68.0,29.87,East,86,0.0,-999.0,64,-99.99,,,0.00,weatherlink.com 1.10,2013-05-01 21:18:00,
2013-05-01 16:33:00,81.7,69.0,29.86,East,84,0.0,-999.0,66,-99.99,,,0.00,weatherlink.com 1.10,2013-05-01 21:33:00,
2013-05-01 16:48:00,82.7,68.0,29.86,NNW,340,0.0,-999.0,62,-99.99,,,0.00,weatherlink.com 1.10,2013-05-01 21:48:00,
2013-05-01 17:03:00,82.7,70.0,29.86,NNW,340,0.0,-999.0,65,-99.99,,,0.00,weatherlink.com 1.10,2013-05-01 22:03:00,
2013-05-01 17:18:00,81.7,68.0,29.86,NNE,19,0.0,-999.0,63,-99.99,,,0.00,weatherlink.com 1.10,2013-05-01 22:18:00,
2013-05-01 17:33:00,81.5,68.0,29.86,NNE,19,0.0,-999.0,64,-99.99,,,0.00,weatherlink.com 1.10,2013-05-01 22:33:00,
2013-05-01 17:48:00,80.9,69.0,29.86,NNE,19,0.0,-999.0,67,-99.99,,,0.00,weatherlink.com 1.10,2013-05-01 22:48:00,
2013-05-01 18:03:00,80.7,69.0,29.86,NNE,19,0.0,-999.0,67,-99.99,,,0.00,weatherlink.com 1.10,2013-05-01 23:03:00,
2013-05-01 18:18:00,80.4,68.0,29.86,NNE,19,0.0,-999.0,65,-99.99,,,0.00,weatherlink.com 1.10,2013-05-01 23:18:00,
2013-05-01 18:33:00,80.1,67.0,29.86,NNE,19,0.0,-999.0,65,-99.99,,,0.00,weatherlink.com 1.10,2013-05-01 23:33:00,
2013-05-01 18:48:00,79.8,67.0,29.86,NNE,19,0.0,-999.0,65,-99.99,,,0.00,weatherlink.com 1.10,2013-05-01 23:48:00,
2013-05-01 19:03:00,79.6,67.0,29.86,NNE,19,0.0,-999.0,66,-99.99,,,0.00,weatherlink.com 1.10,2013-05-02 00:03:00,
2013-05-01 19:18:00,79.4,68.0,29.86,NNE,32,0.0,-999.0,69,-99.99,,,0.00,weatherlink.com 1.10,2013-05-02 00:18:00,
2013-05-01 19:33:00,78.9,67.0,29.87,NNE,25,2.0,-999.0,68,-99.99,,,0.00,weatherlink.com 1.10,2013-05-02 00:33:00,
2013-05-01 19:48:00,78.2,67.0,29.88,North,10,0.0,-999.0,69,-99.99,,,0.00,weatherlink.com 1.10,2013-05-02 00:48:00,
2013-05-01 20:03:00,77.2,67.0,29.89,North,11,0.0,-999.0,71,-99.99,,,0.00,weatherlink.com 1.10,2013-05-02 01:03:00,
2013-05-01 20:18:00,75.7,68.0,29.89,NNE,20,2.0,-999.0,77,-99.99,,,0.00,weatherlink.com 1.10,2013-05-02 01:18:00,
2013-05-01 20:33:00,73.1,66.0,29.91,North,9,3.0,-999.0,79,-99.99,,,0.00,weatherlink.com 1.10,2013-05-02 01:33:00,
2013-05-01 20:48:00,73.3,66.0,29.92,NNE,18,2.0,-999.0,77,-99.99,,,0.00,weatherlink.com 1.10,2013-05-02 01:48:00,
2013-05-01 21:03:00,73.3,65.0,29.91,NNE,22,3.0,-999.0,76,-99.99,,,0.00,weatherlink.com 1.10,2013-05-02 02:03:00,
2013-05-01 21:18:00,73.2,65.0,29.91,NE,40,0.0,-999.0,76,-99.99,,,0.00,weatherlink.com 1.10,2013-05-02 02:18:00,
2013-05-01 21:33:00,73.0,65.0,29.93,NE,40,0.0,-999.0,77,-99.99,,,0.00,weatherlink.com 1.10,2013-05-02 02:33:00,
2013-05-01 21:48:00,72.6,65.0,29.93,NE,40,1.0,-999.0,77,-99.99,,,0.00,weatherlink.com 1.10,2013-05-02 02:48:00,
2013-05-01 22:03:00,72.1,65.0,29.93,NNE,28,0.0,-999.0,78,-99.99,,,0.00,weatherlink.com 1.10,2013-05-02 03:03:00,
2013-05-01 22:18:00,71.5,65.0,29.94,NNE,12,0.0,-999.0,79,-99.99,,,0.00,weatherlink.com 1.10,2013-05-02 03:18:00,
2013-05-01 22:33:00,71.1,65.0,29.94,NNE,31,3.0,-999.0,80,-99.99,,,0.00,weatherlink.com 1.10,2013-05-02 03:33:00,
2013-05-01 22:48:00,70.6,65.0,29.95,NNE,13,2.0,-999.0,81,-99.99,,,0.00,weatherlink.com 1.10,2013-05-02 03:48:00,
2013-05-01 23:03:00,70.1,64.0,29.95,NNE,14,2.0,-999.0,81,-99.99,,,0.00,weatherlink.com 1.10,2013-05-02 04:03:00,
2013-05-01 23:18:00,69.7,64.0,29.95,North,9,1.0,-999.0,82,-99.99,,,0.00,weatherlink.com 1.10,2013-05-02 04:18:00,
2013-05-01 23:33:00,69.2,64.0,29.94,NNE,27,3.0,-999.0,83,-99.99,,,0.00,weatherlink.com 1.10,2013-05-02 04:33:00,
2013-05-01 23:48:00,68.8,64.0,29.93,NNE,29,8.0,-999.0,84,-99.99,,,0.00,weatherlink.com 1.10,2013-05-02 04:48:00,